Time;durP1;ratioP1;P1;durP2;ratioP2;P2;SDS_P1;SDS_P2;PMS_P1;PMS_P2;Temp;Humidity;BMP_temperature;BMP_pressure;BME280_temperature;BME280_humidity;BME280_pressure;Samples;Min_cycle;Max_cycle;Signal;HPM_P1;HPM_P2
2023/11/14 00:02:57;;;;;;;11.85;2.47;;;;;;;;;;10162656;29;20052;-87
2023/11/14 00:08:02;;;;;;;13.23;3.17;;;;;;;;;;10148108;29;20062;-87
2023/11/14 00:13:06;;;;;;;10.38;3.05;;;;;;;;;;10141761;29;20059;-87
2023/11/14 00:18:11;;;;;;;10.32;2.10;;;;;;;;;;10169883;23;20056;-76
2023/11/14 00:23:19;;;;;;;16.67;3.58;;;;;;;;;;10150908;29;20068;-76
2023/11/14 00:28:48;;;;;;;11.38;2.63;;;;;;;;;;10144656;29;20421;-76
2023/11/14 00:35:16;;;;;;;15.15;3.47;;;;;;;;;;10123915;29;20058;-76
2023/11/14 00:40:39;;;;;;;11.60;2.63;;;;;;;;;;10149659;29;20055;-76
2023/11/14 00:45:45;;;;;;;14.30;3.78;;;;;;;;;;10131166;29;20059;-76
2023/11/14 00:50:49;;;;;;;15.87;2.83;;;;;;;;;;10151915;29;20067;-76
2023/11/14 00:55:55;;;;;;;17.40;3.13;;;;;;;;;;10134102;29;20055;-76
2023/11/14 01:01:03;;;;;;;12.13;2.60;;;;;;;;;;10144095;29;20048;-76
2023/11/14 01:06:16;;;;;;;13.18;4.45;;;;;;;;;;10135620;29;20052;-76
2023/11/14 01:11:23;;;;;;;11.38;2.42;;;;;;;;;;10141587;29;20052;-76
2023/11/14 01:16:29;;;;;;;14.90;3.53;;;;;;;;;;10155952;29;20099;-76
2023/11/14 01:21:38;;;;;;;14.73;3.30;;;;;;;;;;10157468;29;20414;-76
2023/11/14 01:27:15;;;;;;;15.30;3.50;;;;;;;;;;10152531;29;20048;-76
2023/11/14 01:32:19;;;;;;;14.98;3.22;;;;;;;;;;10143832;29;20055;-76
2023/11/14 01:37:22;;;;;;;14.15;3.05;;;;;;;;;;10141766;29;20048;-76
2023/11/14 01:42:27;;;;;;;9.85;2.20;;;;;;;;;;10147607;29;20041;-76
2023/11/14 01:47:34;;;;;;;9.93;2.83;;;;;;;;;;10146165;29;20049;-76
2023/11/14 01:52:41;;;;;;;14.73;3.00;;;;;;;;;;10148939;29;20058;-76
2023/11/14 01:57:56;;;;;;;16.27;4.40;;;;;;;;;;10130392;29;20053;-75
2023/11/14 02:03:00;;;;;;;13.52;3.20;;;;;;;;;;10132978;29;20055;-76
2023/11/14 02:08:04;;;;;;;12.60;2.80;;;;;;;;;;10138902;29;20047;-76
2023/11/14 02:13:10;;;;;;;11.02;2.60;;;;;;;;;;10112460;29;20421;-76
2023/11/14 02:18:18;;;;;;;11.73;2.80;;;;;;;;;;10129783;29;20537;-76
2023/11/14 02:23:23;;;;;;;15.25;4.10;;;;;;;;;;10109117;29;20055;-76
2023/11/14 02:28:28;;;;;;;9.85;2.72;;;;;;;;;;10112045;29;20084;-76
2023/11/14 02:33:33;;;;;;;12.43;2.67;;;;;;;;;;10122532;29;20057;-76
2023/11/14 02:38:37;;;;;;;16.27;3.77;;;;;;;;;;10121886;29;20075;-76
2023/11/14 02:43:43;;;;;;;16.35;3.92;;;;;;;;;;10102857;29;20059;-76
2023/11/14 02:48:46;;;;;;;19.38;3.22;;;;;;;;;;10123345;29;20049;-76
2023/11/14 02:53:50;;;;;;;17.05;3.55;;;;;;;;;;10122357;29;20048;-76
2023/11/14 02:59:00;;;;;;;17.98;3.63;;;;;;;;;;10123404;29;20057;-76
2023/11/14 03:04:04;;;;;;;13.20;3.60;;;;;;;;;;10120235;29;20052;-76
2023/11/14 03:09:09;;;;;;;20.27;4.28;;;;;;;;;;10117002;29;20057;-76
2023/11/14 03:14:23;;;;;;;18.08;4.18;;;;;;;;;;10102283;29;20053;-76
2023/11/14 03:19:30;;;;;;;11.93;2.70;;;;;;;;;;10100691;29;20135;-76
2023/11/14 03:24:33;;;;;;;;;;;;;;;;;;10126870;29;20060;-76
2023/11/14 03:29:38;;;;;;;18.17;4.43;;;;;;;;;;10104193;29;20268;-75
2023/11/14 03:34:41;;;;;;;19.73;3.42;;;;;;;;;;10097961;29;20049;-75
2023/11/14 03:39:48;;;;;;;14.65;3.25;;;;;;;;;;10121203;29;20099;-76
2023/11/14 03:44:53;;;;;;;17.83;3.70;;;;;;;;;;10101003;29;20417;-76
2023/11/14 03:49:57;;;;;;;14.85;3.33;;;;;;;;;;10121219;29;20534;-76
2023/11/14 03:55:00;;;;;;;12.90;3.53;;;;;;;;;;10100655;29;20048;-76
2023/11/14 04:00:09;;;;;;;11.33;2.47;;;;;;;;;;10126132;29;20147;-76
2023/11/14 04:05:16;;;;;;;15.38;3.78;;;;;;;;;;10120134;29;20300;-75
2023/11/14 04:10:30;;;;;;;17.83;3.17;;;;;;;;;;10123351;29;20045;-75
2023/11/14 04:15:36;;;;;;;12.63;3.15;;;;;;;;;;10155637;29;20053;-76
2023/11/14 04:20:39;;;;;;;10.98;2.35;;;;;;;;;;10144059;29;20052;-76
2023/11/14 04:25:43;;;;;;;14.90;3.50;;;;;;;;;;10126271;29;20104;-76
2023/11/14 04:30:47;;;;;;;16.17;3.58;;;;;;;;;;10155280;29;20044;-75
2023/11/14 04:35:51;;;;;;;10.80;3.08;;;;;;;;;;10145129;29;20090;-75
2023/11/14 04:40:54;;;;;;;13.32;2.92;;;;;;;;;;10144277;29;20509;-75
2023/11/14 04:45:59;;;;;;;13.68;2.95;;;;;;;;;;10132394;29;20052;-76
2023/11/14 04:51:03;;;;;;;15.55;2.85;;;;;;;;;;10155298;29;20143;-75
2023/11/14 04:56:10;;;;;;;16.17;3.55;;;;;;;;;;10129208;29;20044;-76
2023/11/14 05:01:17;;;;;;;19.13;3.75;;;;;;;;;;10152387;29;20044;-75
2023/11/14 05:06:21;;;;;;;14.18;3.45;;;;;;;;;;10155015;29;20048;-75
2023/11/14 05:11:26;;;;;;;13.98;3.55;;;;;;;;;;10127742;29;20057;-75
2023/11/14 05:16:31;;;;;;;9.85;2.85;;;;;;;;;;10148334;29;20059;-76
2023/11/14 05:21:34;;;;;;;21.08;3.92;;;;;;;;;;10146201;29;20428;-76
2023/11/14 05:26:39;;;;;;;11.85;2.70;;;;;;;;;;10143231;29;20044;-75
2023/11/14 05:31:44;;;;;;;10.60;2.67;;;;;;;;;;10136832;29;20051;-75
2023/11/14 05:36:50;;;;;;;14.48;3.03;;;;;;;;;;10149932;29;20052;-76
2023/11/14 05:41:54;;;;;;;11.95;2.78;;;;;;;;;;10155003;29;20088;-76
2023/11/14 05:47:07;;;;;;;12.18;2.72;;;;;;;;;;10149359;29;20087;-75
2023/11/14 05:52:11;;;;;;;12.68;2.95;;;;;;;;;;10158463;29;20056;-76
2023/11/14 05:57:20;;;;;;;11.18;2.47;;;;;;;;;;10143401;29;20517;-76
2023/11/14 06:02:27;;;;;;;9.43;2.45;;;;;;;;;;10145769;29;20056;-76
2023/11/14 06:07:31;;;;;;;15.77;2.72;;;;;;;;;;10140074;29;20044;-76
2023/11/14 06:12:35;;;;;;;9.88;2.47;;;;;;;;;;10155600;29;20059;-76
2023/11/14 06:17:44;;;;;;;15.18;3.47;;;;;;;;;;10150161;29;20057;-75
2023/11/14 06:22:49;;;;;;;12.95;3.08;;;;;;;;;;10150023;29;20076;-76
2023/11/14 06:27:53;;;;;;;8.07;2.07;;;;;;;;;;10151636;29;20123;-76
2023/11/14 06:32:58;;;;;;;13.90;3.55;;;;;;;;;;10147829;29;20108;-76
2023/11/14 06:38:02;;;;;;;12.02;3.15;;;;;;;;;;10158666;29;20044;-76
2023/11/14 06:43:06;;;;;;;9.82;3.25;;;;;;;;;;10142655;29;20075;-76
2023/11/14 06:48:11;;;;;;;14.60;2.95;;;;;;;;;;10141634;29;20076;-76
2023/11/14 06:53:14;;;;;;;12.02;3.47;;;;;;;;;;10156857;29;20675;-77
2023/11/14 06:58:19;;;;;;;15.00;3.35;;;;;;;;;;10149583;29;20059;-76
2023/11/14 07:03:24;;;;;;;12.25;3.70;;;;;;;;;;10147915;29;20060;-76
2023/11/14 07:08:29;;;;;;;16.65;3.22;;;;;;;;;;10156253;29;20055;-76
2023/11/14 07:13:44;;;;;;;19.30;3.43;;;;;;;;;;10141865;29;20124;-76
2023/11/14 07:18:49;;;;;;;12.90;2.83;;;;;;;;;;10154171;29;20048;-76
2023/11/14 07:23:52;;;;;;;14.30;2.90;;;;;;;;;;10126876;29;20061;-76
2023/11/14 07:28:56;;;;;;;10.95;2.80;;;;;;;;;;10127423;29;20139;-76
2023/11/14 07:34:05;;;;;;;14.55;2.78;;;;;;;;;;10123728;29;20056;-76
2023/11/14 07:39:08;;;;;;;8.85;2.40;;;;;;;;;;10141072;29;20058;-76
2023/11/14 07:44:12;;;;;;;12.93;3.20;;;;;;;;;;10131096;29;20100;-76
2023/11/14 07:49:20;;;;;;;10.75;2.40;;;;;;;;;;10132253;29;20600;-76
2023/11/14 07:54:24;;;;;;;11.15;2.63;;;;;;;;;;10132931;29;20068;-76
2023/11/14 07:59:27;;;;;;;10.35;2.40;;;;;;;;;;10128448;29;20061;-76
2023/11/14 08:04:32;;;;;;;13.48;3.03;;;;;;;;;;10131908;29;20049;-76
2023/11/14 08:09:36;;;;;;;13.50;3.05;;;;;;;;;;10112056;29;20064;-76
2023/11/14 08:14:41;;;;;;;12.20;2.65;;;;;;;;;;10142030;29;20056;-76
2023/11/14 08:19:46;;;;;;;11.32;2.60;;;;;;;;;;10132173;29;20063;-76
2023/11/14 08:25:01;;;;;;;8.18;2.10;;;;;;;;;;10125406;29;20060;-76
2023/11/14 08:30:30;;;;;;;6.78;2.15;;;;;;;;;;10128822;29;20414;-76
2023/11/14 08:35:36;;;;;;;6.90;1.95;;;;;;;;;;10117403;29;20467;-76
2023/11/14 08:40:39;;;;;;;10.05;3.00;;;;;;;;;;10129806;29;20059;-76
2023/11/14 08:45:43;;;;;;;11.18;1.95;;;;;;;;;;10130552;29;20079;-76
2023/11/14 08:50:48;;;;;;;10.85;2.30;;;;;;;;;;10125580;29;20061;-76
2023/11/14 08:55:53;;;;;;;11.00;2.42;;;;;;;;;;10144375;29;20059;-76
2023/11/14 09:00:58;;;;;;;8.77;2.55;;;;;;;;;;10117666;29;20156;-76
2023/11/14 09:06:03;;;;;;;8.15;1.80;;;;;;;;;;10137320;29;20059;-77
2023/11/14 09:11:29;;;;;;;8.75;2.35;;;;;;;;;;10133199;29;20126;-77
2023/11/14 09:16:51;;;;;;;7.18;2.00;;;;;;;;;;10126553;29;20075;-77
2023/11/14 09:22:00;;;;;;;4.82;1.42;;;;;;;;;;10142868;29;20054;-77
2023/11/14 09:27:08;;;;;;;7.35;1.58;;;;;;;;;;10155196;29;20065;-77
2023/11/14 09:32:14;;;;;;;5.13;1.60;;;;;;;;;;10138428;29;20155;-77
2023/11/14 09:37:21;;;;;;;6.13;1.70;;;;;;;;;;10138996;29;20060;-77
2023/11/14 09:42:25;;;;;;;;;;;;;;;;;;10133586;29;20465;-77
2023/11/14 09:48:17;;;;;;;9.23;2.08;;;;;;;;;;10152807;29;19929;-77
2023/11/14 09:53:25;;;;;;;13.77;2.30;;;;;;;;;;10075893;29;20079;-75
2023/11/14 09:58:31;;;;;;;10.90;2.47;;;;;;;;;;10146849;29;20078;-75
2023/11/14 10:03:34;;;;;;;9.93;2.35;;;;;;;;;;10147405;29;20429;-76
2023/11/14 10:08:40;;;;;;;6.60;1.92;;;;;;;;;;10133638;29;20152;-76
2023/11/14 10:13:48;;;;;;;5.47;1.50;;;;;;;;;;10154749;29;20259;-76
2023/11/14 10:18:52;;;;;;;9.82;1.90;;;;;;;;;;10147338;29;20095;-76
2023/11/14 10:24:12;;;;;;;7.65;1.73;;;;;;;;;;10149202;29;20048;-76
2023/11/14 10:29:18;;;;;;;6.93;1.95;;;;;;;;;;10144951;29;20048;-76
2023/11/14 10:34:26;;;;;;;;;;;;;;;;;;10154561;29;20641;-76
2023/11/14 10:39:31;;;;;;;6.82;1.95;;;;;;;;;;10131393;29;19930;-76
2023/11/14 10:44:34;;;;;;;8.82;1.77;;;;;;;;;;10148063;29;20429;-75
2023/11/14 10:49:46;;;;;;;10.45;2.08;;;;;;;;;;10139059;29;20048;-76
2023/11/14 10:54:57;;;;;;;10.52;2.25;;;;;;;;;;10149605;29;20537;-75
2023/11/14 11:00:10;;;;;;;10.35;2.80;;;;;;;;;;10132698;29;20052;-76
2023/11/14 11:05:21;;;;;;;10.68;2.28;;;;;;;;;;10135429;29;20079;-76
2023/11/14 11:10:43;;;;;;;11.43;2.85;;;;;;;;;;10129950;29;20111;-76
2023/11/14 11:15:50;;;;;;;11.70;2.50;;;;;;;;;;10140140;29;20121;-76
2023/11/14 11:21:08;;;;;;;11.55;2.80;;;;;;;;;;10153355;29;20047;-76
2023/11/14 11:26:16;;;;;;;12.65;3.03;;;;;;;;;;10135637;29;20059;-75
2023/11/14 11:31:24;;;;;;;9.82;1.88;;;;;;;;;;10161397;29;20048;-76
2023/11/14 11:36:34;;;;;;;7.32;1.95;;;;;;;;;;10155974;29;20139;-76
2023/11/14 11:41:57;;;;;;;7.32;2.05;;;;;;;;;;10136376;29;20059;-75
2023/11/14 11:47:05;;;;;;;12.35;2.28;;;;;;;;;;10135200;29;20425;-75
2023/11/14 11:52:16;;;;;;;5.70;2.28;;;;;;;;;;10135072;29;20059;-76
2023/11/14 11:57:22;;;;;;;10.45;2.55;;;;;;;;;;10133056;29;20051;-75
2023/11/14 12:02:27;;;;;;;9.18;2.25;;;;;;;;;;10131696;29;20104;-76
2023/11/14 12:07:32;;;;;;;7.28;1.90;;;;;;;;;;10131691;29;20467;-75
2023/11/14 12:12:40;;;;;;;6.95;1.85;;;;;;;;;;10146634;29;20085;-76
2023/11/14 12:17:54;;;;;;;9.48;2.13;;;;;;;;;;10945425;23;20060;-84
2023/11/14 12:22:57;;;;;;;14.82;3.40;;;;;;;;;;10153141;29;20135;-83
2023/11/14 12:28:06;;;;;;;10.40;2.13;;;;;;;;;;10163512;29;20063;-84
2023/11/14 12:33:15;;;;;;;7.45;2.15;;;;;;;;;;10158646;29;20071;-84
2023/11/14 12:38:32;;;;;;;9.18;2.63;;;;;;;;;;10150214;29;20107;-84
2023/11/14 12:43:39;;;;;;;6.57;2.40;;;;;;;;;;10174522;29;20094;-83
2023/11/14 12:49:06;;;;;;;8.32;2.08;;;;;;;;;;10140740;29;20052;-85
2023/11/14 12:54:09;;;;;;;8.80;2.20;;;;;;;;;;10167484;29;20700;-84
2023/11/14 12:59:15;;;;;;;12.85;2.42;;;;;;;;;;10151081;29;20178;-84
2023/11/14 13:04:18;;;;;;;10.20;2.23;;;;;;;;;;10161430;29;20078;-84
2023/11/14 13:09:23;;;;;;;8.93;2.08;;;;;;;;;;10155465;29;20044;-85
2023/11/14 13:14:30;;;;;;;5.03;1.25;;;;;;;;;;10123703;29;20056;-84
2023/11/14 13:19:34;;;;;;;7.40;1.52;;;;;;;;;;10191317;29;20052;-84
2023/11/14 13:24:37;;;;;;;7.68;2.03;;;;;;;;;;10155623;29;20662;-82
2023/11/14 13:29:42;;;;;;;5.32;1.35;;;;;;;;;;10159764;29;20051;-84
2023/11/14 13:34:45;;;;;;;8.10;1.63;;;;;;;;;;10144668;29;20052;-84
2023/11/14 13:39:49;;;;;;;8.32;1.90;;;;;;;;;;10143217;29;20136;-85
2023/11/14 13:44:56;;;;;;;6.43;1.55;;;;;;;;;;10159855;29;20469;-85
2023/11/14 13:50:05;;;;;;;5.72;1.20;;;;;;;;;;10139766;29;20063;-85
2023/11/14 13:55:09;;;;;;;6.90;1.30;;;;;;;;;;10165705;29;20078;-85
2023/11/14 14:00:17;;;;;;;6.65;0.90;;;;;;;;;;10152186;29;20039;-85
2023/11/14 14:05:21;;;;;;;2.95;0.90;;;;;;;;;;10160167;29;20052;-84
2023/11/14 14:10:24;;;;;;;2.50;1.10;;;;;;;;;;10183955;29;20559;-85
2023/11/14 14:15:31;;;;;;;4.25;1.23;;;;;;;;;;10175632;29;20056;-85
2023/11/14 14:20:36;;;;;;;4.50;1.00;;;;;;;;;;10170731;29;20048;-85
2023/11/14 14:25:39;;;;;;;1.95;0.90;;;;;;;;;;10158582;29;20131;-85
2023/11/14 14:30:45;;;;;;;2.42;1.02;;;;;;;;;;10181858;29;20603;-86
2023/11/14 14:35:52;;;;;;;2.97;0.70;;;;;;;;;;10176894;29;20059;-85
2023/11/14 14:40:57;;;;;;;2.90;0.75;;;;;;;;;;10167432;29;20076;-85
2023/11/14 14:46:02;;;;;;;2.57;0.93;;;;;;;;;;10148970;29;20059;-87
2023/11/14 14:51:10;;;;;;;2.97;0.90;;;;;;;;;;10161487;29;20479;-85
2023/11/14 14:56:13;;;;;;;2.88;0.77;;;;;;;;;;10185143;29;20111;-85
2023/11/14 15:01:19;;;;;;;3.95;0.90;;;;;;;;;;10174725;29;20075;-84
2023/11/14 15:06:22;;;;;;;2.87;0.77;;;;;;;;;;10160032;29;20083;-84
2023/11/14 15:11:29;;;;;;;;;;;;;;;;;;10165188;29;20534;-86
2023/11/14 15:16:34;;;;;;;1.35;0.40;;;;;;;;;;10154277;29;19966;-86
2023/11/14 15:21:44;;;;;;;1.88;0.77;;;;;;;;;;10145044;29;20071;-86
2023/11/14 15:26:49;;;;;;;1.70;0.88;;;;;;;;;;10164056;29;20080;-86
2023/11/14 15:31:54;;;;;;;1.20;0.45;;;;;;;;;;10156660;29;20051;-87
2023/11/14 15:37:01;;;;;;;2.28;0.70;;;;;;;;;;10180702;29;20064;-87
2023/11/14 15:42:06;;;;;;;0.80;0.50;;;;;;;;;;10152498;29;20740;-86
2023/11/14 15:47:11;;;;;;;3.22;0.70;;;;;;;;;;10167358;29;20712;-86
2023/11/14 15:52:14;;;;;;;1.63;0.50;;;;;;;;;;10154161;29;20072;-88
2023/11/14 15:57:18;;;;;;;1.58;0.40;;;;;;;;;;10175321;29;20040;-86
2023/11/14 16:02:25;;;;;;;1.95;0.85;;;;;;;;;;10178621;29;20040;-86
2023/11/14 16:07:29;;;;;;;1.75;0.68;;;;;;;;;;10181718;29;20059;-86
2023/11/14 16:12:33;;;;;;;0.93;0.30;;;;;;;;;;10140119;29;20063;-86
2023/11/14 16:17:39;;;;;;;1.05;0.40;;;;;;;;;;10169979;29;20064;-83
2023/11/14 16:22:42;;;;;;;1.13;0.40;;;;;;;;;;10148123;29;20136;-85
2023/11/14 16:27:46;;;;;;;1.58;0.50;;;;;;;;;;10150710;29;20443;-80
2023/11/14 16:32:50;;;;;;;1.45;0.40;;;;;;;;;;10183266;29;20068;-82
2023/11/14 16:37:54;;;;;;;2.28;0.50;;;;;;;;;;10170947;29;20051;-80
2023/11/14 16:42:58;;;;;;;2.42;1.38;;;;;;;;;;10176564;29;20051;-80
2023/11/14 16:48:03;;;;;;;2.83;1.23;;;;;;;;;;10176303;29;20459;-79
2023/11/14 16:53:06;;;;;;;2.65;1.40;;;;;;;;;;10152485;29;20063;-80
2023/11/14 16:58:10;;;;;;;1.92;0.90;;;;;;;;;;10170419;29;20052;-81
2023/11/14 17:03:14;;;;;;;1.63;0.60;;;;;;;;;;10168621;29;20695;-80
2023/11/14 17:08:18;;;;;;;0.52;0.50;;;;;;;;;;10167796;29;20072;-81
2023/11/14 17:13:21;;;;;;;3.97;1.27;;;;;;;;;;10172800;29;20048;-81
2023/11/14 17:18:26;;;;;;;1.75;0.77;;;;;;;;;;10141242;29;20150;-80
2023/11/14 17:23:29;;;;;;;0.88;0.50;;;;;;;;;;10150984;29;20163;-82
2023/11/14 17:28:34;;;;;;;0.88;0.70;;;;;;;;;;10147537;29;20072;-84
2023/11/14 17:33:39;;;;;;;1.48;0.90;;;;;;;;;;10141554;29;20137;-83
2023/11/14 17:38:43;;;;;;;3.03;0.67;;;;;;;;;;10142509;29;20425;-85
2023/11/14 17:43:46;;;;;;;0.25;0.25;;;;;;;;;;10145750;29;20064;-82
2023/11/14 17:48:51;;;;;;;0.55;0.22;;;;;;;;;;10172407;29;20141;-82
2023/11/14 17:53:55;;;;;;;0.40;0.25;;;;;;;;;;10158860;29;20079;-81
2023/11/14 17:59:00;;;;;;;0.40;0.40;;;;;;;;;;10151868;29;20131;-82
2023/11/14 18:04:05;;;;;;;1.45;0.47;;;;;;;;;;10186200;29;20064;-80
2023/11/14 18:09:08;;;;;;;1.97;0.80;;;;;;;;;;10163114;29;20127;-82
2023/11/14 18:14:12;;;;;;;1.80;0.80;;;;;;;;;;10156993;23;20115;-87
2023/11/14 18:19:18;;;;;;;1.70;0.43;;;;;;;;;;10134358;29;20052;-87
2023/11/14 18:24:27;;;;;;;2.38;0.75;;;;;;;;;;10116874;29;20500;-92
2023/11/14 18:29:34;;;;;;;0.90;0.40;;;;;;;;;;10123816;29;20049;-88
2023/11/14 18:34:40;;;;;;;2.13;0.77;;;;;;;;;;10115311;29;20197;-88
2023/11/14 18:39:44;;;;;;;1.77;0.63;;;;;;;;;;10137744;29;20053;-88
2023/11/14 18:51:31;;;;;;;0.30;0.30;;;;;;;;;;10122146;29;20037;-87
2023/11/14 18:56:36;;;;;;;0.65;0.45;;;;;;;;;;10129038;29;20061;-90
2023/11/14 19:01:40;;;;;;;1.08;0.40;;;;;;;;;;10117939;29;20052;-90
2023/11/14 19:06:46;;;;;;;0.75;0.20;;;;;;;;;;10104104;29;20053;-89
2023/11/14 19:11:54;;;;;;;0.63;0.38;;;;;;;;;;10112467;29;20111;-88
2023/11/14 19:16:57;;;;;;;1.00;0.40;;;;;;;;;;10083812;29;20475;-85
2023/11/14 19:22:02;;;;;;;1.40;0.70;;;;;;;;;;10101537;29;20052;-85
2023/11/14 19:27:14;;;;;;;1.33;0.52;;;;;;;;;;10085702;29;20052;-84
2023/11/14 19:32:18;;;;;;;1.33;0.55;;;;;;;;;;10105785;29;20067;-85
2023/11/14 19:37:23;;;;;;;0.55;0.50;;;;;;;;;;10122783;29;20055;-84
2023/11/14 19:42:27;;;;;;;0.50;0.45;;;;;;;;;;10108927;29;20052;-84
2023/11/14 19:47:33;;;;;;;1.35;0.73;;;;;;;;;;10087472;29;20056;-85
2023/11/14 19:52:40;;;;;;;1.90;0.80;;;;;;;;;;10115395;29;20052;-85
2023/11/14 19:57:43;;;;;;;1.25;0.80;;;;;;;;;;10093791;29;20059;-85
2023/11/14 20:02:47;;;;;;;1.15;0.60;;;;;;;;;;10086160;29;20057;-85
2023/11/14 20:07:54;;;;;;;1.05;0.65;;;;;;;;;;10092551;29;20083;-84
2023/11/14 20:12:58;;;;;;;1.17;0.68;;;;;;;;;;10097231;29;20096;-87
2023/11/14 20:18:03;;;;;;;1.00;0.60;;;;;;;;;;10106759;29;20071;-89
2023/11/14 20:23:08;;;;;;;1.08;0.70;;;;;;;;;;10095646;29;20089;-86
2023/11/14 20:28:12;;;;;;;1.40;0.55;;;;;;;;;;10111654;29;20707;-87
2023/11/14 20:33:15;;;;;;;1.17;0.50;;;;;;;;;;10107468;29;20044;-86
2023/11/14 20:38:20;;;;;;;3.20;0.60;;;;;;;;;;10098069;29;20048;-87
2023/11/14 20:43:24;;;;;;;2.30;0.90;;;;;;;;;;10119117;29;20139;-87
2023/11/14 20:48:28;;;;;;;2.28;0.60;;;;;;;;;;10125473;29;20056;-87
2023/11/14 20:53:33;;;;;;;2.60;0.82;;;;;;;;;;10092856;29;20181;-86
2023/11/14 20:58:37;;;;;;;3.15;1.48;;;;;;;;;;10109842;29;20136;-87
2023/11/14 21:03:40;;;;;;;1.42;0.90;;;;;;;;;;10126134;29;20056;-93
2023/11/14 21:08:46;;;;;;;3.42;1.33;;;;;;;;;;10107516;29;20460;-90
2023/11/14 21:13:53;;;;;;;1.73;0.70;;;;;;;;;;10127578;29;20136;-90
2023/11/14 21:18:59;;;;;;;3.03;0.70;;;;;;;;;;10105008;29;20057;-88
2023/11/14 21:24:04;;;;;;;2.45;0.65;;;;;;;;;;10126613;29;20080;-89
2023/11/14 21:29:13;;;;;;;3.45;1.80;;;;;;;;;;10107540;29;20505;-88
2023/11/14 21:34:17;;;;;;;2.22;1.00;;;;;;;;;;10106574;29;20064;-88
2023/11/14 21:39:22;;;;;;;5.25;1.92;;;;;;;;;;10117652;29;20055;-89
2023/11/14 21:44:26;;;;;;;3.50;1.92;;;;;;;;;;10117244;29;20062;-88
2023/11/14 21:49:31;;;;;;;1.77;0.95;;;;;;;;;;10106174;29;20063;-87
2023/11/14 21:54:36;;;;;;;0.73;0.40;;;;;;;;;;10090878;29;20544;-88
2023/11/14 21:59:44;;;;;;;0.50;0.50;;;;;;;;;;10129552;29;20052;-88
2023/11/14 22:04:47;;;;;;;2.90;0.85;;;;;;;;;;10103453;29;20056;-88
2023/11/14 22:09:52;;;;;;;3.28;1.42;;;;;;;;;;10136944;29;20072;-87
2023/11/14 22:14:56;;;;;;;4.70;1.83;;;;;;;;;;10121591;29;20059;-88
2023/11/14 22:20:00;;;;;;;3.47;1.75;;;;;;;;;;10118763;29;20429;-87
2023/11/14 22:25:06;;;;;;;2.75;1.63;;;;;;;;;;10132702;29;20055;-88
2023/11/14 22:30:11;;;;;;;3.72;1.92;;;;;;;;;;10135210;29;20722;-89
2023/11/14 22:35:17;;;;;;;2.55;1.50;;;;;;;;;;10114190;29;20652;-89
2023/11/14 22:40:22;;;;;;;4.05;1.95;;;;;;;;;;10116048;29;20052;-88
2023/11/14 22:45:26;;;;;;;5.40;2.67;;;;;;;;;;10107090;29;20419;-87
2023/11/14 22:50:30;;;;;;;4.22;1.48;;;;;;;;;;10113844;29;20135;-88
2023/11/14 22:55:35;;;;;;;4.22;1.50;;;;;;;;;;10119737;29;20103;-89
2023/11/14 23:00:44;;;;;;;0.93;0.80;;;;;;;;;;10103639;29;20063;-88
2023/11/14 23:05:51;;;;;;;0.95;0.68;;;;;;;;;;10104904;29;20151;-91
2023/11/14 23:10:56;;;;;;;2.33;1.08;;;;;;;;;;10122402;29;20048;-85
2023/11/14 23:16:00;;;;;;;1.48;0.70;;;;;;;;;;10110496;29;20052;-85
2023/11/14 23:21:05;;;;;;;1.25;1.15;;;;;;;;;;10106593;29;20055;-85
2023/11/14 23:26:10;;;;;;;2.22;1.00;;;;;;;;;;10115677;29;20093;-84
2023/11/14 23:31:13;;;;;;;1.98;1.30;;;;;;;;;;10110884;29;20056;-85
2023/11/14 23:36:18;;;;;;;1.38;1.08;;;;;;;;;;10109158;29;20067;-85
2023/11/14 23:41:23;;;;;;;2.47;1.30;;;;;;;;;;10118602;29;20111;-85
2023/11/14 23:46:27;;;;;;;1.88;1.00;;;;;;;;;;10109377;29;20096;-85
2023/11/14 23:51:33;;;;;;;2.85;1.10;;;;;;;;;;10107378;29;20056;-85
2023/11/14 23:56:38;;;;;;;6.57;1.70;;;;;;;;;;10098196;29;20048;-85
